Time;durP1;ratioP1;P1;durP2;ratioP2;P2;SDS_P1;SDS_P2;PMS_P1;PMS_P2;Temp;Humidity;BMP_temperature;BMP_pressure;BME280_temperature;BME280_humidity;BME280_pressure;Samples;Min_cycle;Max_cycle;Signal;HPM_P1;HPM_P2
2023/07/07 00:02:08;;;;;;;8.43;6.47;;;13.50;99.90;;;;;;5058784;28;20049;-79
2023/07/07 00:04:34;;;;;;;11.93;7.28;;;13.50;99.90;;;;;;5060597;28;20053;-79
2023/07/07 00:06:59;;;;;;;8.00;7.20;;;13.40;99.90;;;;;;5060558;28;20040;-79
2023/07/07 00:09:25;;;;;;;8.30;7.50;;;13.40;99.90;;;;;;5041301;28;20060;-79
2023/07/07 00:11:52;;;;;;;12.38;7.78;;;13.40;99.90;;;;;;5042635;28;20439;-79
2023/07/07 00:14:18;;;;;;;10.90;8.00;;;13.40;99.90;;;;;;5041087;28;20128;-79
2023/07/07 00:16:45;;;;;;;8.52;7.70;;;13.40;99.90;;;;;;5040531;28;20479;-79
2023/07/07 00:19:10;;;;;;;10.32;9.20;;;13.30;99.90;;;;;;5058459;28;20106;-79
2023/07/07 00:21:37;;;;;;;11.18;8.70;;;13.30;99.90;;;;;;5057930;28;20076;-79
2023/07/07 00:24:04;;;;;;;10.50;8.95;;;13.30;99.90;;;;;;5040363;28;20056;-79
2023/07/07 00:26:32;;;;;;;10.17;9.17;;;13.30;99.90;;;;;;5056662;28;20048;-79
2023/07/07 00:28:58;;;;;;;;;;;13.30;99.90;;;;;;5041516;28;20102;-79
2023/07/07 00:31:24;;;;;;;9.93;8.88;;;13.30;99.90;;;;;;5040499;28;20344;-79
2023/07/07 00:33:50;;;;;;;10.20;9.20;;;13.20;99.90;;;;;;5058112;28;20055;-79
2023/07/07 00:36:16;;;;;;;10.48;9.38;;;13.20;99.90;;;;;;5058684;28;20123;-79
2023/07/07 00:38:41;;;;;;;10.63;9.27;;;13.20;99.90;;;;;;5040629;28;20412;-79
2023/07/07 00:41:08;;;;;;;13.48;10.15;;;13.20;99.90;;;;;;5059187;28;20076;-80
2023/07/07 00:43:35;;;;;;;10.18;9.27;;;13.20;99.90;;;;;;5058711;28;20041;-79
2023/07/07 00:46:01;;;;;;;11.33;10.27;;;13.20;99.90;;;;;;5059103;28;20553;-79
2023/07/07 00:48:35;;;;;;;11.73;10.50;;;13.20;99.90;;;;;;5058552;28;20041;-79
2023/07/07 00:51:11;;;;;;;12.73;10.50;;;13.10;99.90;;;;;;5058531;28;20044;-79
2023/07/07 00:53:38;;;;;;;12.57;11.27;;;13.10;99.90;;;;;;5059380;28;20089;-79
2023/07/07 00:56:09;;;;;;;12.65;11.18;;;13.10;99.90;;;;;;5058796;28;20133;-79
2023/07/07 00:58:36;;;;;;;13.00;11.07;;;13.00;99.90;;;;;;5041078;28;20047;-80
2023/07/07 01:01:12;;;;;;;13.60;11.93;;;13.20;99.90;;;;;;5059184;28;20052;-80
2023/07/07 01:03:55;;;;;;;15.07;12.13;;;12.90;99.90;;;;;;5041311;28;20143;-81
2023/07/07 01:06:28;;;;;;;14.75;13.02;;;13.20;99.90;;;;;;5059603;28;20045;-80
2023/07/07 01:09:06;;;;;;;13.45;12.15;;;13.00;99.90;;;;;;5035825;28;20077;-80
2023/07/07 01:11:32;;;;;;;13.85;12.35;;;13.00;99.90;;;;;;5021960;28;20061;-80
2023/07/07 01:14:06;;;;;;;18.05;12.60;;;12.90;99.90;;;;;;5037981;28;20496;-80
2023/07/07 01:16:52;;;;;;;14.30;12.57;;;13.00;99.90;;;;;;5035888;28;20120;-80
2023/07/07 01:19:33;;;;;;;16.77;14.15;;;12.90;99.90;;;;;;5035833;28;20045;-80
2023/07/07 01:22:20;;;;;;;14.80;13.25;;;12.90;99.90;;;;;;5019170;28;20045;-80
2023/07/07 01:25:12;;;;;;;14.93;13.40;;;12.80;99.90;;;;;;5036731;28;20099;-80
2023/07/07 01:28:07;;;;;;;14.43;12.93;;;12.80;99.90;;;;;;5037468;28;20475;-79
2023/07/07 01:30:45;;;;;;;15.15;13.35;;;12.70;99.90;;;;;;5039880;28;20123;-80
2023/07/07 01:33:13;;;;;;;;;;;12.90;99.90;;;;;;5040719;28;20085;-80
2023/07/07 01:35:39;;;;;;;18.00;13.60;;;12.70;99.90;;;;;;5039724;28;19967;-80
2023/07/07 01:38:06;;;;;;;16.38;13.75;;;12.70;99.90;;;;;;5040985;28;20046;-80
2023/07/07 01:41:10;;;;;;;17.00;14.23;;;12.70;99.90;;;;;;5040507;28;20034;-80
2023/07/07 01:44:07;;;;;;;15.77;14.02;;;12.70;99.90;;;;;;4978368;28;20533;-80
2023/07/07 01:46:49;;;;;;;17.45;14.18;;;12.60;99.90;;;;;;4978540;28;20548;-80
2023/07/07 01:49:18;;;;;;;20.92;14.82;;;12.60;99.90;;;;;;4978364;28;20089;-80
2023/07/07 01:51:51;;;;;;;17.98;16.05;;;12.60;99.90;;;;;;4978658;28;20094;-80
2023/07/07 01:54:18;;;;;;;17.80;15.48;;;12.60;99.90;;;;;;4978554;28;20541;-79
2023/07/07 01:56:45;;;;;;;16.48;14.65;;;12.60;99.90;;;;;;4977897;28;20051;-79
2023/07/07 01:59:12;;;;;;;17.48;15.77;;;12.60;99.90;;;;;;4977990;28;20050;-79
2023/07/07 02:01:38;;;;;;;17.83;15.87;;;12.60;99.90;;;;;;4977940;28;20130;-78
2023/07/07 02:04:04;;;;;;;22.35;16.27;;;12.60;99.90;;;;;;4977262;28;20082;-79
2023/07/07 02:06:30;;;;;;;19.33;16.35;;;12.60;99.90;;;;;;4977830;28;20090;-80
2023/07/07 02:08:55;;;;;;;16.27;14.70;;;12.50;99.90;;;;;;4977764;28;20047;-79
2023/07/07 02:11:21;;;;;;;17.92;16.13;;;12.50;99.90;;;;;;4978554;28;20422;-80
2023/07/07 02:13:46;;;;;;;21.23;16.95;;;12.50;99.90;;;;;;4977829;28;20054;-80
2023/07/07 02:16:12;;;;;;;19.33;15.57;;;12.50;99.90;;;;;;4961948;28;20077;-79
2023/07/07 02:18:38;;;;;;;20.58;18.48;;;12.50;99.90;;;;;;5037804;28;20046;-80
2023/07/07 02:21:05;;;;;;;19.48;16.25;;;12.50;99.90;;;;;;5038393;28;20045;-80
2023/07/07 02:23:32;;;;;;;18.70;16.73;;;12.30;99.90;;;;;;5038687;28;20381;-79
2023/07/07 02:25:58;;;;;;;17.95;15.85;;;12.50;99.90;;;;;;5039785;28;20373;-80
2023/07/07 02:28:23;;;;;;;18.50;16.50;;;12.50;99.90;;;;;;5039015;28;20046;-80
2023/07/07 02:30:49;;;;;;;21.05;16.48;;;12.60;99.90;;;;;;5039255;28;20052;-80
2023/07/07 02:33:15;;;;;;;18.25;15.38;;;12.50;99.90;;;;;;5039108;28;20507;-80
2023/07/07 02:35:41;;;;;;;20.58;17.25;;;12.60;99.90;;;;;;5021534;28;20480;-80
2023/07/07 02:38:07;;;;;;;19.27;17.15;;;12.60;99.90;;;;;;5039217;28;20561;-80
2023/07/07 02:40:33;;;;;;;25.42;18.65;;;12.60;99.90;;;;;;5037588;28;20395;-80
2023/07/07 02:43:00;;;;;;;18.77;15.75;;;12.50;99.90;;;;;;5035577;28;20044;-80
2023/07/07 02:45:26;;;;;;;19.83;15.93;;;;;;;;;;5039407;28;20443;-80
2023/07/07 02:47:52;;;;;;;17.67;15.77;;;12.30;99.90;;;;;;5020178;28;20047;-80
2023/07/07 02:50:18;;;;;;;17.42;15.63;;;12.30;99.90;;;;;;5041674;28;20042;-79
2023/07/07 02:52:43;;;;;;;17.05;14.82;;;12.30;99.90;;;;;;5043070;28;20172;-80
2023/07/07 02:55:09;;;;;;;20.10;16.30;;;12.30;99.90;;;;;;5043217;28;20087;-80
2023/07/07 02:57:34;;;;;;;18.60;16.52;;;12.20;99.90;;;;;;5042343;28;20045;-79
2023/07/07 03:00:00;;;;;;;19.50;17.50;;;12.30;99.90;;;;;;5041366;28;20056;-79
2023/07/07 03:02:26;;;;;;;17.38;15.65;;;12.30;99.90;;;;;;5044913;28;20127;-79
2023/07/07 03:04:51;;;;;;;18.55;16.65;;;12.20;99.90;;;;;;5042042;28;20084;-79
2023/07/07 03:07:17;;;;;;;18.40;16.08;;;12.20;99.90;;;;;;5047100;28;20041;-79
2023/07/07 03:09:43;;;;;;;19.55;16.83;;;12.20;99.90;;;;;;5041255;28;20057;-80
2023/07/07 03:12:08;;;;;;;18.05;16.25;;;12.30;99.90;;;;;;5065269;28;20087;-80
2023/07/07 03:14:34;;;;;;;17.65;15.85;;;12.10;99.90;;;;;;5066458;28;20044;-80
2023/07/07 03:17:00;;;;;;;18.65;16.67;;;12.10;99.90;;;;;;5067699;28;20093;-79
2023/07/07 03:19:25;;;;;;;17.50;15.63;;;12.10;99.90;;;;;;5051864;28;20067;-80
2023/07/07 03:21:55;;;;;;;19.20;16.02;;;12.20;99.90;;;;;;5069919;28;20045;-79
2023/07/07 03:24:20;;;;;;;19.27;17.20;;;12.10;99.90;;;;;;5069841;28;20040;-79
2023/07/07 03:26:46;;;;;;;22.25;16.95;;;12.00;99.90;;;;;;5069637;28;20033;-79
2023/07/07 03:29:12;;;;;;;19.90;16.00;;;12.20;99.90;;;;;;5069644;28;20044;-80
2023/07/07 03:31:38;;;;;;;17.58;15.68;;;12.20;99.90;;;;;;5068731;28;20049;-80
2023/07/07 03:34:05;;;;;;;15.63;14.02;;;12.20;99.90;;;;;;5068438;28;20036;-80
2023/07/07 03:36:32;;;;;;;18.02;16.17;;;12.20;99.90;;;;;;5050634;28;20099;-79
2023/07/07 03:38:58;;;;;;;19.58;15.27;;;12.20;99.90;;;;;;5069362;28;20074;-79
2023/07/07 03:41:26;;;;;;;22.77;16.27;;;12.30;99.90;;;;;;5049587;28;20175;-79
2023/07/07 03:43:53;;;;;;;20.48;15.93;;;12.30;99.90;;;;;;5068456;28;20037;-81
2023/07/07 03:46:20;;;;;;;21.33;16.00;;;;;;;;;;5051304;28;20055;-80
2023/07/07 03:48:47;;;;;;;18.15;16.17;;;12.30;99.90;;;;;;5067003;28;20044;-79
2023/07/07 03:51:14;;;;;;;17.53;14.90;;;12.40;99.90;;;;;;5067335;28;20056;-79
2023/07/07 03:53:41;;;;;;;20.23;16.63;;;12.40;99.90;;;;;;5067300;28;20045;-79
2023/07/07 03:56:07;;;;;;;19.47;16.47;;;12.50;99.90;;;;;;5066471;28;20037;-79
2023/07/07 03:58:33;;;;;;;17.33;15.55;;;12.50;99.90;;;;;;5063354;28;20067;-79
2023/07/07 04:01:09;;;;;;;17.08;15.27;;;12.50;99.90;;;;;;5059203;28;20483;-79
2023/07/07 04:03:35;;;;;;;18.10;16.05;;;12.50;99.90;;;;;;5059547;28;20052;-78
2023/07/07 04:06:01;;;;;;;17.98;15.65;;;12.60;99.90;;;;;;5065771;28;20041;-79
2023/07/07 04:08:27;;;;;;;19.15;15.15;;;12.60;99.90;;;;;;5063425;28;20037;-79
2023/07/07 04:11:03;;;;;;;19.13;15.07;;;12.70;99.90;;;;;;5038177;28;20061;-79
2023/07/07 04:13:32;;;;;;;17.60;14.88;;;12.80;99.90;;;;;;5037163;28;20047;-79
2023/07/07 04:16:04;;;;;;;18.02;15.10;;;12.80;99.90;;;;;;5040235;28;20041;-79
2023/07/07 04:18:33;;;;;;;18.42;15.50;;;;;;;;;;5043648;28;20044;-80
2023/07/07 04:21:00;;;;;;;18.20;16.35;;;;;;;;;;5042796;28;20046;-80
2023/07/07 04:23:26;;;;;;;17.17;14.63;;;13.00;99.90;;;;;;5045312;28;20073;-79
2023/07/07 04:25:52;;;;;;;21.85;15.93;;;;;;;;;;5047155;28;20071;-79
2023/07/07 04:28:18;;;;;;;19.88;15.27;;;13.10;99.90;;;;;;5045463;28;20408;-79
2023/07/07 04:30:44;;;;;;;18.35;15.20;;;13.20;99.90;;;;;;5046750;28;20048;-79
2023/07/07 04:33:10;;;;;;;20.40;15.30;;;13.30;99.90;;;;;;5047333;28;20049;-79
2023/07/07 04:35:37;;;;;;;17.45;15.45;;;;;;;;;;5048280;28;20040;-80
2023/07/07 04:38:03;;;;;;;20.80;16.05;;;13.60;99.90;;;;;;5047931;28;20045;-80
2023/07/07 04:40:32;;;;;;;24.27;16.15;;;13.80;99.90;;;;;;5048347;28;20038;-80
2023/07/07 04:42:58;;;;;;;23.50;17.00;;;15.00;99.90;;;;;;5046848;28;20049;-80
2023/07/07 04:45:23;;;;;;;18.50;15.23;;;17.10;99.90;;;;;;5045111;28;20065;-80
2023/07/07 04:47:49;;;;;;;18.13;13.98;;;18.20;99.90;;;;;;5044281;28;20087;-80
2023/07/07 04:50:15;;;;;;;15.48;13.85;;;18.40;99.90;;;;;;5045645;28;20072;-79
2023/07/07 04:52:41;;;;;;;16.05;12.98;;;19.30;99.90;;;;;;5044438;28;20060;-79
2023/07/07 04:55:07;;;;;;;18.65;12.02;;;20.00;99.90;;;;;;5046575;28;20037;-79
2023/07/07 04:57:32;;;;;;;15.32;11.32;;;20.70;99.90;;;;;;5043241;28;20049;-80
2023/07/07 04:59:58;;;;;;;12.18;10.93;;;21.40;99.90;;;;;;5041628;28;20400;-80
2023/07/07 05:02:23;;;;;;;12.77;10.60;;;22.00;99.90;;;;;;5040429;28;20101;-80
2023/07/07 05:04:49;;;;;;;13.10;9.40;;;22.60;99.90;;;;;;5040812;28;20038;-80
2023/07/07 05:07:15;;;;;;;14.10;9.32;;;22.90;99.90;;;;;;5039794;28;20046;-80
2023/07/07 05:09:40;;;;;;;11.65;10.45;;;23.20;99.90;;;;;;5041408;28;20128;-80
2023/07/07 05:12:09;;;;;;;12.43;10.05;;;23.70;99.90;;;;;;5060113;28;20098;-80
2023/07/07 05:14:34;;;;;;;13.13;9.77;;;23.90;99.90;;;;;;5060508;28;20041;-80
2023/07/07 05:17:00;;;;;;;13.45;8.82;;;24.30;99.90;;;;;;5059538;28;20033;-81
2023/07/07 05:19:26;;;;;;;10.32;8.32;;;24.70;99.90;;;;;;5058681;28;20534;-80
2023/07/07 05:21:52;;;;;;;11.77;9.18;;;25.30;99.90;;;;;;5058052;28;20078;-80
2023/07/07 05:24:17;;;;;;;13.15;7.97;;;25.50;99.90;;;;;;5056445;28;20045;-80
2023/07/07 05:26:43;;;;;;;9.02;8.13;;;25.90;99.90;;;;;;5038017;28;20080;-80
2023/07/07 05:29:09;;;;;;;10.30;7.75;;;26.10;99.90;;;;;;5038610;28;20491;-80
2023/07/07 05:31:35;;;;;;;10.82;8.15;;;26.30;99.90;;;;;;5056980;28;20045;-80
2023/07/07 05:34:00;;;;;;;9.23;7.32;;;26.70;99.90;;;;;;5056230;28;20128;-80
2023/07/07 05:36:26;;;;;;;7.60;6.75;;;26.90;99.90;;;;;;5055745;28;20072;-80
2023/07/07 05:38:52;;;;;;;9.57;6.18;;;27.20;99.90;;;;;;5058691;28;20049;-80
2023/07/07 05:41:18;;;;;;;9.18;7.00;;;;;;;;;;5058064;28;20091;-80
2023/07/07 05:43:44;;;;;;;7.95;5.55;;;27.70;99.90;;;;;;5042750;28;20051;-80
2023/07/07 05:46:15;;;;;;;8.02;5.70;;;28.00;99.90;;;;;;5058758;28;20100;-80
2023/07/07 05:48:42;;;;;;;7.53;5.32;;;27.90;99.90;;;;;;5040924;28;20041;-80
2023/07/07 05:51:11;;;;;;;9.27;5.18;;;28.20;99.90;;;;;;5062592;28;20119;-80
2023/07/07 05:53:40;;;;;;;7.22;5.28;;;27.90;99.30;;;;;;5062383;28;20502;-80
2023/07/07 05:56:13;;;;;;;6.60;4.93;;;28.60;99.50;;;;;;5044803;28;20044;-80
2023/07/07 05:58:39;;;;;;;7.65;5.05;;;28.60;99.30;;;;;;5060394;28;20045;-80
2023/07/07 06:01:05;;;;;;;9.40;5.05;;;28.90;98.50;;;;;;5059704;28;20107;-80
2023/07/07 06:03:31;;;;;;;9.48;5.32;;;28.90;97.00;;;;;;5059958;28;20098;-80
2023/07/07 06:05:57;;;;;;;5.57;4.57;;;29.10;98.20;;;;;;5059533;28;20049;-80
2023/07/07 06:08:23;;;;;;;6.47;5.25;;;29.60;97.40;;;;;;5058000;28;20041;-80
2023/07/07 06:10:49;;;;;;;4.90;4.38;;;29.20;97.50;;;;;;5039131;28;20056;-80
2023/07/07 06:13:23;;;;;;;6.88;4.93;;;29.20;97.10;;;;;;5039632;28;20053;-80
2023/07/07 06:15:52;;;;;;;6.15;4.90;;;29.40;96.60;;;;;;5039750;28;20041;-80
2023/07/07 06:18:18;;;;;;;5.70;4.40;;;29.70;96.00;;;;;;5039316;28;20049;-80
2023/07/07 06:20:52;;;;;;;8.90;4.70;;;29.80;96.10;;;;;;5039238;28;20039;-80
2023/07/07 06:23:19;;;;;;;5.88;4.70;;;30.00;96.50;;;;;;5020582;28;20468;-79
2023/07/07 06:25:44;;;;;;;6.13;4.18;;;29.60;95.20;;;;;;5038442;28;20041;-80
2023/07/07 06:28:10;;;;;;;9.20;4.82;;;30.20;94.90;;;;;;5020860;28;20114;-80
2023/07/07 06:30:36;;;;;;;4.45;4.05;;;29.60;95.40;;;;;;5037882;28;20045;-81
2023/07/07 06:33:02;;;;;;;5.72;4.20;;;30.00;95.20;;;;;;5037342;28;20045;-80
2023/07/07 06:35:29;;;;;;;6.95;4.65;;;30.50;95.20;;;;;;5036747;28;20045;-80
2023/07/07 06:37:54;;;;;;;5.93;3.65;;;30.50;93.60;;;;;;5039794;28;20504;-80
2023/07/07 06:40:21;;;;;;;7.20;3.70;;;30.20;95.10;;;;;;5039567;28;20048;-80
2023/07/07 06:42:48;;;;;;;6.90;3.77;;;30.30;94.30;;;;;;5039645;28;20087;-80
2023/07/07 06:45:14;;;;;;;;;;;30.50;93.90;;;;;;5039328;28;20416;-80
2023/07/07 06:47:39;;;;;;;7.07;4.47;;;30.90;94.20;;;;;;5040065;28;19921;-80
2023/07/07 06:50:06;;;;;;;6.10;3.80;;;30.90;93.30;;;;;;5039828;28;20045;-80
2023/07/07 06:52:32;;;;;;;6.47;3.33;;;30.90;94.10;;;;;;5039134;28;20121;-80
2023/07/07 06:54:58;;;;;;;4.32;3.60;;;30.80;93.40;;;;;;5038581;28;20080;-80
2023/07/07 06:57:24;;;;;;;4.47;3.58;;;30.30;93.10;;;;;;5041630;28;20072;-80
2023/07/07 06:59:50;;;;;;;5.13;3.20;;;30.10;93.10;;;;;;5043362;28;20365;-80
2023/07/07 07:02:16;;;;;;;4.57;3.35;;;30.40;93.30;;;;;;5042957;28;20140;-80
2023/07/07 07:04:42;;;;;;;5.47;3.53;;;30.10;93.10;;;;;;5025567;28;20052;-80
2023/07/07 07:07:09;;;;;;;6.03;3.25;;;30.50;92.80;;;;;;5043731;28;20116;-80
2023/07/07 07:09:34;;;;;;;4.20;2.83;;;30.60;93.70;;;;;;5055758;28;20064;-79
2023/07/07 07:12:00;;;;;;;3.42;2.80;;;30.70;93.20;;;;;;5046587;28;20052;-80
2023/07/07 07:14:25;;;;;;;4.20;2.65;;;30.50;92.20;;;;;;5064168;28;20049;-80
2023/07/07 07:16:51;;;;;;;3.65;2.55;;;30.80;92.10;;;;;;5044991;28;20056;-80
2023/07/07 07:19:17;;;;;;;5.28;2.90;;;31.00;92.60;;;;;;5060928;28;20403;-80
2023/07/07 07:21:42;;;;;;;3.70;3.20;;;30.70;92.20;;;;;;5043943;28;20045;-80
2023/07/07 07:24:08;;;;;;;5.65;2.83;;;30.30;90.90;;;;;;5061912;28;20047;-80
2023/07/07 07:26:33;;;;;;;4.82;2.72;;;30.60;92.10;;;;;;5060493;28;20049;-80
2023/07/07 07:28:59;;;;;;;3.80;2.63;;;30.40;91.40;;;;;;5061481;28;20072;-80
2023/07/07 07:31:26;;;;;;;3.10;2.50;;;30.70;91.60;;;;;;5061193;28;20045;-80
2023/07/07 07:33:53;;;;;;;;;;;30.50;90.80;;;;;;5061419;28;20045;-80
2023/07/07 07:36:19;;;;;;;;;;;30.30;90.90;;;;;;5042821;28;20091;-80
2023/07/07 07:38:44;;;;;;;5.30;2.40;;;30.20;90.60;;;;;;5060173;28;20467;-80
2023/07/07 07:41:10;;;;;;;4.22;2.67;;;30.20;91.20;;;;;;5061247;28;20096;-80
2023/07/07 07:43:35;;;;;;;3.42;2.08;;;30.30;91.30;;;;;;5060781;28;20073;-80
2023/07/07 07:46:01;;;;;;;3.45;2.05;;;29.50;90.50;;;;;;5060017;28;20081;-80
2023/07/07 07:48:27;;;;;;;2.53;2.00;;;29.20;90.40;;;;;;5059745;28;20494;-80
2023/07/07 07:50:52;;;;;;;3.72;2.05;;;28.70;90.30;;;;;;5060655;28;20073;-80
2023/07/07 07:53:19;;;;;;;3.30;1.92;;;28.30;90.60;;;;;;5042173;28;20041;-80
2023/07/07 07:55:45;;;;;;;2.80;2.13;;;27.70;90.40;;;;;;5041038;28;20084;-80
2023/07/07 07:58:11;;;;;;;5.07;2.10;;;27.40;91.40;;;;;;5039686;28;20403;-80
2023/07/07 08:00:36;;;;;;;2.70;1.77;;;27.30;92.10;;;;;;5057670;28;20041;-80
2023/07/07 08:03:02;;;;;;;3.60;1.63;;;26.90;90.70;;;;;;5057242;28;20041;-79
2023/07/07 08:05:28;;;;;;;2.58;1.73;;;26.70;91.00;;;;;;5038762;28;20052;-79
2023/07/07 08:07:53;;;;;;;4.15;2.20;;;26.20;90.70;;;;;;5039336;28;20372;-79
2023/07/07 08:10:19;;;;;;;3.60;1.90;;;26.40;91.30;;;;;;5056747;28;20075;-79
2023/07/07 08:12:45;;;;;;;2.30;1.92;;;26.30;90.70;;;;;;5056919;28;20049;-80
2023/07/07 08:15:11;;;;;;;3.30;1.98;;;26.40;91.20;;;;;;5040715;28;20044;-80
2023/07/07 08:17:37;;;;;;;2.78;2.08;;;26.30;90.60;;;;;;5059267;28;20095;-80
2023/07/07 08:20:05;;;;;;;2.85;2.00;;;26.60;90.50;;;;;;5059528;28;20044;-80
2023/07/07 08:22:31;;;;;;;2.50;1.83;;;26.50;90.80;;;;;;5060002;28;20053;-79
2023/07/07 08:24:58;;;;;;;5.07;2.10;;;26.30;90.60;;;;;;5059425;28;20498;-79
2023/07/07 08:27:26;;;;;;;4.75;1.95;;;26.40;91.00;;;;;;5059382;28;20521;-79
2023/07/07 08:29:53;;;;;;;2.65;2.00;;;26.50;91.20;;;;;;5041052;28;20049;-79
2023/07/07 08:32:21;;;;;;;2.78;1.95;;;26.40;90.90;;;;;;5059270;28;20045;-79
2023/07/07 08:34:51;;;;;;;2.75;2.15;;;26.50;90.90;;;;;;5025247;28;20147;-79
2023/07/07 08:37:19;;;;;;;3.15;1.98;;;26.40;91.00;;;;;;5041585;28;20045;-79
2023/07/07 08:39:46;;;;;;;3.63;2.00;;;26.50;91.30;;;;;;5058428;28;20041;-79
2023/07/07 08:42:27;;;;;;;2.70;2.08;;;26.60;90.70;;;;;;5058389;28;20041;-79
2023/07/07 08:44:54;;;;;;;4.22;2.17;;;26.50;90.00;;;;;;5058946;28;20045;-79
2023/07/07 08:47:50;;;;;;;5.38;2.30;;;26.60;89.70;;;;;;5058447;28;20132;-80
2023/07/07 08:50:37;;;;;;;2.50;1.90;;;26.70;90.80;;;;;;5059726;28;20036;-80
2023/07/07 08:53:51;;;;;;;5.10;2.17;;;26.80;90.10;;;;;;5059800;28;20037;-80
2023/07/07 08:56:27;;;;;;;2.40;1.88;;;26.90;88.60;;;;;;4978092;28;20065;-80
2023/07/07 08:58:52;;;;;;;3.55;2.08;;;26.40;87.10;;;;;;4960651;28;20491;-79
2023/07/07 09:01:39;;;;;;;3.85;2.40;;;26.60;87.00;;;;;;4962532;28;20055;-79
2023/07/07 09:04:14;;;;;;;2.47;2.00;;;26.60;88.30;;;;;;4978371;28;20046;-80
2023/07/07 09:06:48;;;;;;;2.67;2.17;;;26.80;88.60;;;;;;4977472;28;20449;-80
2023/07/07 09:09:52;;;;;;;4.10;2.17;;;26.90;89.40;;;;;;4974452;28;20051;-79
2023/07/07 09:12:24;;;;;;;3.00;1.95;;;26.70;88.00;;;;;;4958681;29;20126;-80
2023/07/07 09:14:51;;;;;;;3.58;2.10;;;26.50;85.20;;;;;;4957800;29;20106;-80
2023/07/07 09:17:33;;;;;;;3.80;1.98;;;26.60;86.70;;;;;;4957176;29;20055;-80
2023/07/07 09:20:02;;;;;;;2.75;2.00;;;26.60;87.00;;;;;;4957162;29;20055;-80
2023/07/07 09:22:47;;;;;;;2.38;1.95;;;26.80;85.20;;;;;;4924780;29;20043;-79
2023/07/07 09:25:19;;;;;;;3.70;2.10;;;26.80;85.70;;;;;;4956392;29;20106;-79
2023/07/07 09:27:54;;;;;;;3.55;2.00;;;26.50;85.90;;;;;;4956360;29;20134;-79
2023/07/07 09:30:44;;;;;;;3.95;1.95;;;26.60;86.70;;;;;;4956636;29;20081;-79
2023/07/07 09:33:16;;;;;;;3.78;2.10;;;26.60;86.20;;;;;;5014397;28;20468;-79
2023/07/07 09:35:56;;;;;;;2.72;2.08;;;26.30;84.10;;;;;;5039500;28;20114;-79
2023/07/07 09:38:46;;;;;;;2.78;1.90;;;26.40;86.50;;;;;;5021297;28;20060;-79
2023/07/07 09:41:39;;;;;;;3.17;2.10;;;26.70;86.30;;;;;;5038431;28;20045;-79
2023/07/07 09:44:33;;;;;;;4.40;2.20;;;26.60;85.40;;;;;;5038602;28;20049;-79
2023/07/07 09:47:13;;;;;;;4.25;2.15;;;27.00;87.20;;;;;;5038961;28;20099;-79
2023/07/07 09:49:57;;;;;;;2.83;1.80;;;27.00;86.40;;;;;;5037542;28;20488;-79
2023/07/07 09:52:29;;;;;;;3.78;2.00;;;26.60;84.20;;;;;;5021452;28;20049;-79
2023/07/07 09:54:58;;;;;;;3.33;1.98;;;26.40;85.30;;;;;;5036538;28;20041;-79
2023/07/07 09:57:53;;;;;;;2.83;2.08;;;26.60;86.40;;;;;;5004051;28;20603;-79
2023/07/07 10:00:21;;;;;;;2.45;2.22;;;26.90;87.70;;;;;;5038530;28;20503;-79
2023/07/07 10:02:46;;;;;;;;;;;26.80;86.60;;;;;;5038727;28;20052;-80
2023/07/07 10:05:20;;;;;;;2.47;2.10;;;26.90;85.20;;;;;;5053253;28;19921;-79
2023/07/07 10:07:47;;;;;;;2.65;2.05;;;26.50;84.60;;;;;;5038133;28;20050;-79
2023/07/07 10:10:13;;;;;;;3.50;1.98;;;26.20;86.30;;;;;;5054941;28;20056;-79
2023/07/07 10:12:40;;;;;;;2.67;2.10;;;26.40;86.90;;;;;;5060723;28;20073;-79
2023/07/07 10:15:47;;;;;;;2.17;1.90;;;26.80;86.30;;;;;;5044697;28;20287;-79
2023/07/07 10:18:21;;;;;;;4.57;2.08;;;26.70;86.20;;;;;;5049944;28;20512;-79
2023/07/07 10:20:47;;;;;;;3.60;2.00;;;26.80;85.40;;;;;;5042529;28;20495;-79
2023/07/07 10:23:15;;;;;;;3.20;1.98;;;26.90;83.30;;;;;;5060667;28;20045;-80
2023/07/07 10:25:41;;;;;;;;;;;26.90;85.20;;;;;;5061379;28;20053;-80
2023/07/07 10:28:14;;;;;;;2.58;2.10;;;26.70;84.10;;;;;;5043495;28;19921;-80
2023/07/07 10:30:41;;;;;;;2.80;1.90;;;26.90;84.70;;;;;;5060503;28;20073;-79
2023/07/07 10:33:12;;;;;;;;;;;27.00;85.00;;;;;;5060408;28;20041;-79
2023/07/07 10:35:37;;;;;;;3.15;2.08;;;27.10;82.50;;;;;;5041292;28;20348;-80
2023/07/07 10:38:04;;;;;;;3.30;1.90;;;27.40;82.80;;;;;;5041192;28;20045;-80
2023/07/07 10:40:30;;;;;;;2.90;1.92;;;27.20;78.50;;;;;;5040582;28;20041;-80
2023/07/07 10:42:57;;;;;;;3.15;1.92;;;27.30;79.70;;;;;;5041620;28;20041;-79
2023/07/07 10:45:23;;;;;;;;;;;27.50;77.60;;;;;;5060033;28;20045;-79
2023/07/07 10:47:49;;;;;;;2.53;2.17;;;27.50;76.50;;;;;;5059952;28;19928;-79
2023/07/07 10:50:17;;;;;;;3.40;2.00;;;27.60;78.90;;;;;;5061420;28;20040;-79
2023/07/07 10:53:06;;;;;;;2.33;1.88;;;27.50;77.40;;;;;;5043324;28;20059;-79
2023/07/07 10:55:53;;;;;;;3.47;1.92;;;27.60;80.20;;;;;;5042060;28;20053;-80
2023/07/07 10:58:28;;;;;;;;;;;27.90;79.80;;;;;;5061944;28;20053;-79
2023/07/07 11:01:04;;;;;;;2.08;1.98;;;27.90;78.80;;;;;;5061675;28;19967;-80
2023/07/07 11:04:15;;;;;;;3.90;2.13;;;27.90;78.30;;;;;;5043138;28;20055;-80
2023/07/07 11:06:59;;;;;;;2.63;1.95;;;27.80;77.20;;;;;;5062841;28;20457;-79
2023/07/07 11:09:55;;;;;;;2.60;2.10;;;27.60;74.10;;;;;;5063005;28;20407;-80
2023/07/07 11:12:51;;;;;;;3.43;2.03;;;27.70;77.50;;;;;;5046022;28;20484;-80
2023/07/07 11:15:32;;;;;;;3.47;2.20;;;27.50;73.90;;;;;;5064012;28;20037;-79
2023/07/07 11:18:10;;;;;;;3.45;2.35;;;27.40;74.80;;;;;;5045231;28;20053;-79
2023/07/07 11:21:01;;;;;;;2.55;2.15;;;27.70;77.80;;;;;;5062551;28;20111;-80
2023/07/07 11:23:54;;;;;;;3.38;2.20;;;27.90;77.20;;;;;;5060933;28;20044;-80
2023/07/07 11:26:39;;;;;;;2.40;2.20;;;27.90;77.60;;;;;;5060861;28;20045;-80
2023/07/07 11:29:17;;;;;;;2.75;2.17;;;28.10;75.70;;;;;;5061154;28;20049;-79
2023/07/07 11:32:11;;;;;;;3.33;2.28;;;28.10;75.70;;;;;;5044439;28;20049;-80
2023/07/07 11:34:50;;;;;;;2.42;2.22;;;28.00;74.90;;;;;;5043431;28;20053;-79
2023/07/07 11:37:36;;;;;;;3.67;1.80;;;28.10;76.80;;;;;;5042154;28;20052;-79
2023/07/07 11:40:25;;;;;;;1.98;1.75;;;28.30;75.80;;;;;;5060951;28;20041;-79
2023/07/07 11:43:09;;;;;;;2.72;1.58;;;28.30;74.10;;;;;;5042257;28;20053;-79
2023/07/07 11:46:04;;;;;;;2.13;1.80;;;28.00;73.00;;;;;;5041804;28;20037;-79
2023/07/07 11:48:57;;;;;;;2.33;1.95;;;27.90;73.10;;;;;;5059345;28;20052;-79
2023/07/07 11:51:36;;;;;;;4.45;1.90;;;28.20;74.00;;;;;;5060396;28;20049;-79
2023/07/07 11:54:35;;;;;;;3.20;1.95;;;28.10;74.80;;;;;;5042232;28;20056;-79
2023/07/07 11:57:14;;;;;;;2.90;2.17;;;28.20;74.30;;;;;;5058660;28;20052;-79
2023/07/07 11:59:50;;;;;;;2.65;2.20;;;28.00;71.70;;;;;;5058217;28;20031;-79
2023/07/07 12:02:32;;;;;;;2.75;2.15;;;27.80;73.50;;;;;;5058795;28;20051;-79
2023/07/07 12:05:00;;;;;;;2.47;2.08;;;28.00;73.40;;;;;;5058331;28;20076;-79
2023/07/07 12:07:40;;;;;;;3.35;1.90;;;27.80;72.10;;;;;;5058362;28;20053;-79
2023/07/07 12:10:15;;;;;;;2.15;1.65;;;27.90;71.80;;;;;;5060156;28;20136;-79
2023/07/07 12:13:04;;;;;;;2.75;2.03;;;27.80;72.90;;;;;;5042499;28;20037;-79
2023/07/07 12:15:33;;;;;;;3.10;2.20;;;27.80;72.60;;;;;;5061462;28;20099;-79
2023/07/07 12:18:24;;;;;;;2.33;2.00;;;28.00;73.20;;;;;;5061193;28;20052;-79
2023/07/07 12:21:02;;;;;;;2.28;2.03;;;27.90;73.20;;;;;;5061130;28;20041;-79
2023/07/07 12:23:33;;;;;;;3.42;2.33;;;27.90;73.50;;;;;;5043275;28;20053;-79
2023/07/07 12:26:21;;;;;;;3.17;2.35;;;27.90;74.10;;;;;;5059831;28;20123;-79
2023/07/07 12:28:56;;;;;;;2.90;1.95;;;28.00;75.10;;;;;;5061364;28;20041;-79
2023/07/07 12:31:23;;;;;;;2.67;2.00;;;28.20;75.20;;;;;;5060167;28;20055;-79
2023/07/07 12:33:51;;;;;;;6.35;2.45;;;28.00;74.60;;;;;;5059923;28;20400;-79
2023/07/07 12:36:20;;;;;;;3.13;2.20;;;28.30;77.70;;;;;;5059699;28;20055;-79
2023/07/07 12:38:51;;;;;;;5.20;2.85;;;28.30;77.00;;;;;;5041662;28;20200;-80
2023/07/07 12:41:22;;;;;;;2.15;1.90;;;28.40;75.10;;;;;;5059824;28;20033;-79
2023/07/07 12:43:55;;;;;;;2.33;2.00;;;28.40;74.40;;;;;;5059817;28;20068;-79
2023/07/07 12:46:28;;;;;;;2.05;1.85;;;28.00;73.60;;;;;;5060040;28;20463;-80
2023/07/07 12:48:58;;;;;;;2.53;2.20;;;28.20;73.40;;;;;;5060310;28;20406;-79
2023/07/07 12:51:27;;;;;;;3.17;2.17;;;28.20;74.40;;;;;;5060361;28;20048;-79
2023/07/07 12:53:53;;;;;;;2.20;2.00;;;28.50;74.10;;;;;;5059769;28;20037;-79
2023/07/07 12:56:29;;;;;;;5.20;2.42;;;28.40;75.40;;;;;;5110229;27;20500;-40
2023/07/07 12:58:56;;;;;;;4.28;2.05;;;28.50;76.40;;;;;;5109921;28;20079;-39
2023/07/07 13:01:36;;;;;;;3.53;2.08;;;28.80;77.80;;;;;;5110151;28;20085;-41
2023/07/07 13:04:04;;;;;;;2.42;2.20;;;28.80;77.70;;;;;;5110003;28;20048;-39